KHAE

Hannibal Regional Airport

Hannibal, Missouri, USA
METAR KHAE 170415Z AUTO 10005KT 3SM BR OVC004 00/00 A3015 RMK AO2
Observed Flight Rules
Jan-17 @ 04:15 UTC (3 hours ago) Instrument Flight Rules
Wind Visibility Clouds Conditions
100° at 5 knots 3 miles
  • Overcast at 400' AGL
  • Mist
Temperatures Readings
Current 0°C / 32°F
Dewpoint 0°C / 32°F
Humidity 100%
Altimeter 30.15" Hg
Pressure 1021.02 hPa
Elevation 234
METAR KHAE 170415Z AUTO 10005KT 3SM BR OVC004 00/00 A3015 RMK AO2
Observed Flight Rules
Jan-17 @ 04:15 UTC
(3 hours ago)
LIFR
Wind Visibility
100° at 5 knots 3 miles
Clouds
  • Overcast at 400' AGL
Conditions
  • Mist
Temperature Dewpoint
0°C / 32°F 0°C / 32°F
Humidity Altimeter Pressure
100% 30.15" Hg 1021.02 hPa